Monument Valley, Utah
Current Conditions -  °F | °C
As of 4:55 AM on Thursday 27 Nov 2014 (Local Time) from KBDG Reporting Station
Clear Clear  
Wind Chill: 25°   Ceiling: Unl
Heat Index: 32°   Visibility: 10mi
Dew Point: 20°   Wind: 7mph
Humidity: 62%   Direction: 20°NNE
Pressure: 30.52"   Gusts: NA
Location:  37.1°N, 110.32°W
Report Text: KBDG 271155Z AUTO 02006KT 10SM CLR 00/M07 A3052 RMK AO1 T10021066 10222 21089
Loading
Personal Weather Stations






























Interactive Weather Map New forecast layout! Learn more

10-Day Weather Forecast

Advertisements
Track Severe Weather on mobile